createdAt,value
2023-02-04T00:00:17.296Z,15.37
2023-02-04T00:02:44.566Z,15.13
2023-02-04T00:05:13.115Z,13.13
2023-02-04T00:07:41.528Z,11.60
2023-02-04T00:10:09.416Z,13.07
2023-02-04T00:12:36.648Z,12.60
2023-02-04T00:15:03.869Z,11.27
2023-02-04T00:17:31.101Z,8.50
2023-02-04T00:19:58.316Z,11.97
2023-02-04T00:22:28.224Z,12.17
2023-02-04T00:24:55.534Z,10.50
2023-02-04T00:27:23.080Z,10.13
2023-02-04T00:29:50.332Z,10.60
2023-02-04T00:32:17.921Z,8.30
2023-02-04T00:34:45.221Z,8.03
2023-02-04T00:37:12.430Z,11.63
2023-02-04T00:39:39.745Z,10.93
2023-02-04T00:42:07.553Z,10.57
2023-02-04T00:44:36.496Z,7.03
2023-02-04T00:47:04.049Z,11.00
2023-02-04T00:49:31.281Z,9.93
2023-02-04T00:51:58.466Z,7.87
2023-02-04T00:54:25.643Z,10.40
2023-02-04T00:56:52.834Z,7.80
2023-02-04T00:59:20.112Z,8.07
2023-02-04T01:01:47.332Z,7.73
2023-02-04T01:04:15.017Z,5.60
2023-02-04T01:06:42.330Z,4.07
2023-02-04T01:09:10.151Z,4.50
2023-02-04T01:11:37.791Z,5.27
2023-02-04T01:14:05.058Z,5.47
2023-02-04T01:16:32.380Z,7.37
2023-02-04T01:19:00.601Z,6.67
2023-02-04T01:21:28.236Z,4.37
2023-02-04T01:23:55.690Z,6.23
2023-02-04T01:26:23.088Z,6.37
2023-02-04T01:28:50.516Z,4.50
2023-02-04T01:31:18.503Z,5.77
2023-02-04T01:33:45.731Z,4.60
2023-02-04T01:36:13.038Z,5.17
2023-02-04T01:38:40.262Z,7.17
2023-02-04T01:41:07.623Z,6.40
2023-02-04T01:43:35.366Z,6.73
2023-02-04T01:46:02.896Z,4.50
2023-02-04T01:48:30.665Z,5.37
2023-02-04T01:51:02.016Z,6.50
2023-02-04T01:53:29.288Z,4.67
2023-02-04T01:55:56.424Z,7.37
2023-02-04T01:58:23.583Z,4.90
2023-02-04T02:00:50.793Z,6.17
2023-02-04T02:03:18.047Z,7.80
2023-02-04T02:05:46.695Z,7.37
2023-02-04T02:08:14.515Z,7.57
2023-02-04T02:10:42.713Z,7.33
2023-02-04T02:13:11.584Z,7.90
2023-02-04T02:15:38.949Z,7.57
2023-02-04T02:18:06.170Z,10.13
2023-02-04T02:20:33.985Z,9.60
2023-02-04T02:23:04.083Z,7.50
2023-02-04T02:25:31.475Z,10.00
2023-02-04T02:27:59.429Z,8.40
2023-02-04T02:30:28.178Z,7.63
2023-02-04T02:32:56.183Z,8.80
2023-02-04T02:35:23.841Z,6.70
2023-02-04T02:37:51.088Z,9.00
2023-02-04T02:40:18.400Z,9.77
2023-02-04T02:42:46.409Z,10.33
2023-02-04T02:45:21.427Z,10.73
2023-02-04T02:47:48.698Z,6.33
2023-02-04T02:50:17.786Z,7.93
2023-02-04T02:52:45.049Z,8.57
2023-02-04T02:55:20.201Z,7.90
2023-02-04T02:57:48.055Z,8.57
2023-02-04T03:00:16.684Z,7.37
2023-02-04T03:02:44.268Z,10.17
2023-02-04T03:05:11.768Z,7.33
2023-02-04T03:07:38.979Z,8.00
2023-02-04T03:10:06.439Z,8.17
2023-02-04T03:12:33.684Z,8.47
2023-02-04T03:15:00.873Z,6.43
2023-02-04T03:17:28.191Z,9.10
2023-02-04T03:19:55.425Z,8.13
2023-02-04T03:22:22.770Z,6.87
2023-02-04T03:24:49.956Z,9.20
2023-02-04T03:27:18.079Z,11.97
2023-02-04T03:29:46.031Z,7.20
2023-02-04T03:32:13.227Z,9.70
2023-02-04T03:34:40.401Z,7.23
2023-02-04T03:37:07.738Z,6.87
2023-02-04T03:39:34.968Z,6.90
2023-02-04T03:42:02.469Z,11.50
2023-02-04T03:44:29.857Z,8.67
2023-02-04T03:46:57.303Z,5.40
2023-02-04T03:49:24.997Z,8.30
2023-02-04T03:51:52.189Z,7.27
2023-02-04T03:54:19.428Z,8.17
2023-02-04T03:56:46.668Z,7.30
2023-02-04T03:59:13.846Z,8.13
2023-02-04T04:01:41.132Z,7.03
2023-02-04T04:04:08.433Z,6.67
2023-02-04T04:06:35.597Z,7.03
2023-02-04T04:09:02.848Z,7.53
2023-02-04T04:11:30.530Z,7.00
2023-02-04T04:13:57.764Z,6.87
2023-02-04T04:16:24.959Z,8.33
2023-02-04T04:18:52.132Z,7.53
2023-02-04T04:21:19.287Z,7.23
2023-02-04T04:23:46.603Z,6.30
2023-02-04T04:26:14.230Z,6.40
2023-02-04T04:28:41.575Z,5.67
2023-02-04T04:31:09.108Z,5.63
2023-02-04T04:33:36.539Z,7.67
2023-02-04T04:36:03.741Z,5.03
2023-02-04T04:38:30.881Z,4.97
2023-02-04T04:40:58.065Z,8.93
2023-02-04T04:43:25.277Z,7.87
2023-02-04T04:45:52.437Z,8.33
2023-02-04T04:48:21.495Z,5.40
2023-02-04T04:50:48.800Z,5.37
2023-02-04T04:53:15.942Z,5.50
2023-02-04T04:55:43.159Z,7.53
2023-02-04T04:58:10.668Z,5.80
2023-02-04T05:00:37.938Z,7.30
2023-02-04T05:03:05.163Z,4.20
2023-02-04T05:05:32.307Z,6.23
2023-02-04T05:07:59.652Z,7.83
2023-02-04T05:10:26.866Z,3.47
2023-02-04T05:12:54.231Z,6.83
2023-02-04T05:15:21.400Z,5.20
2023-02-04T05:17:48.597Z,5.90
2023-02-04T05:20:15.745Z,6.10
2023-02-04T05:22:42.898Z,5.70
2023-02-04T05:25:10.953Z,4.70
2023-02-04T05:27:38.356Z,10.13
2023-02-04T05:30:05.660Z,5.40
2023-02-04T05:32:32.815Z,4.53
2023-02-04T05:34:59.957Z,7.40
2023-02-04T05:37:27.179Z,5.53
2023-02-04T05:39:54.415Z,4.97
2023-02-04T05:42:21.626Z,5.27
2023-02-04T05:44:48.812Z,4.67
2023-02-04T05:47:16.112Z,7.53
2023-02-04T05:49:43.419Z,5.80
2023-02-04T05:52:10.649Z,4.83
2023-02-04T05:54:37.892Z,6.97
2023-02-04T05:57:05.140Z,4.90
2023-02-04T05:59:32.331Z,3.43
2023-02-04T06:01:59.499Z,4.97
2023-02-04T06:04:26.648Z,4.13
2023-02-04T06:06:53.898Z,5.80
2023-02-04T06:09:21.136Z,4.47
2023-02-04T06:11:48.295Z,4.63
2023-02-04T06:14:15.431Z,7.17
2023-02-04T06:16:42.794Z,4.13
2023-02-04T06:19:10.013Z,4.93
2023-02-04T06:21:37.178Z,4.57
2023-02-04T06:24:05.484Z,3.43
2023-02-04T06:26:32.779Z,3.20
2023-02-04T06:28:59.927Z,3.13
2023-02-04T06:31:27.194Z,7.03
2023-02-04T06:33:54.484Z,3.93
2023-02-04T06:36:21.634Z,7.37
2023-02-04T06:38:48.856Z,4.47
2023-02-04T06:41:16.093Z,6.23
2023-02-04T06:43:43.352Z,4.47
2023-02-04T06:46:10.734Z,5.83
2023-02-04T06:48:37.993Z,5.27
2023-02-04T06:51:05.256Z,5.13
2023-02-04T06:53:32.495Z,4.17
2023-02-04T06:55:59.791Z,4.17
2023-02-04T06:58:27.025Z,4.53
2023-02-04T07:00:54.216Z,5.47
2023-02-04T07:03:21.392Z,5.97
2023-02-04T07:05:48.659Z,3.83
2023-02-04T07:08:16.087Z,5.50
2023-02-04T07:10:43.264Z,4.70
2023-02-04T07:13:10.591Z,5.00
2023-02-04T07:15:38.695Z,4.47
2023-02-04T07:18:05.887Z,5.97
2023-02-04T07:20:33.414Z,6.13
2023-02-04T07:23:00.829Z,5.47
2023-02-04T07:25:28.119Z,7.30
2023-02-04T07:27:56.338Z,6.03
2023-02-04T07:30:23.556Z,5.50
2023-02-04T07:32:50.796Z,3.03
2023-02-04T07:35:18.206Z,5.60
2023-02-04T07:37:45.488Z,3.10
2023-02-04T07:40:13.175Z,4.60
2023-02-04T07:42:40.419Z,6.53
2023-02-04T07:45:07.886Z,6.50
2023-02-04T07:47:35.058Z,4.43
2023-02-04T07:50:02.257Z,4.23
2023-02-04T07:52:29.444Z,5.97
2023-02-04T07:54:56.597Z,5.63
2023-02-04T07:57:23.745Z,5.03
2023-02-04T07:59:50.937Z,3.80
2023-02-04T08:02:18.148Z,8.57
2023-02-04T08:04:45.407Z,5.23
2023-02-04T08:07:12.572Z,6.50
2023-02-04T08:09:39.783Z,4.37
2023-02-04T08:12:06.966Z,4.77
2023-02-04T08:14:34.161Z,5.53
2023-02-04T08:17:01.404Z,7.77
2023-02-04T08:19:28.647Z,7.43
2023-02-04T08:21:55.876Z,7.67
2023-02-04T08:24:23.083Z,7.17
2023-02-04T08:26:51.135Z,13.23
2023-02-04T08:29:19.032Z,8.23
2023-02-04T08:31:47.811Z,7.80
2023-02-04T08:34:15.240Z,6.93
2023-02-04T08:36:42.491Z,7.57
2023-02-04T08:39:09.670Z,6.13
2023-02-04T08:41:36.907Z,7.17
2023-02-04T08:44:04.080Z,6.57
2023-02-04T08:46:31.322Z,8.87
2023-02-04T08:48:58.536Z,9.63
2023-02-04T08:51:25.868Z,5.67
2023-02-04T08:53:53.140Z,6.00
2023-02-04T08:56:20.617Z,4.23
2023-02-04T08:58:48.315Z,5.87
2023-02-04T09:01:15.600Z,2.63
2023-02-04T09:03:42.901Z,5.83
2023-02-04T09:06:10.460Z,4.53
2023-02-04T09:08:37.767Z,7.07
2023-02-04T09:11:05.495Z,7.73
2023-02-04T09:13:34.126Z,3.40
2023-02-04T09:16:02.145Z,4.37
2023-02-04T09:18:31.057Z,5.60
2023-02-04T09:21:00.139Z,3.83
2023-02-04T09:23:27.385Z,6.87
2023-02-04T09:25:54.666Z,3.80
2023-02-04T09:28:21.924Z,4.97
2023-02-04T09:30:49.146Z,4.77
2023-02-04T09:33:17.121Z,5.30
2023-02-04T09:35:44.394Z,4.20
2023-02-04T09:38:11.665Z,4.60
2023-02-04T09:40:42.457Z,6.27
2023-02-04T09:43:12.387Z,5.53
2023-02-04T09:45:39.560Z,5.70
2023-02-04T09:48:10.044Z,3.63
2023-02-04T09:50:37.555Z,7.33
2023-02-04T09:53:06.138Z,4.90
2023-02-04T09:55:38.322Z,5.33
2023-02-04T09:58:17.475Z,6.47
2023-02-04T10:00:45.786Z,9.47
2023-02-04T10:03:22.152Z,8.40
2023-02-04T10:05:49.849Z,4.97
2023-02-04T10:08:21.920Z,5.30
2023-02-04T10:10:50.161Z,3.43
2023-02-04T10:13:18.741Z,4.60
2023-02-04T10:15:46.660Z,6.30
2023-02-04T10:18:17.095Z,2.03
2023-02-04T10:20:44.301Z,5.27
2023-02-04T10:23:12.818Z,5.37
2023-02-04T10:25:40.075Z,3.27
2023-02-04T10:28:07.291Z,5.00
2023-02-04T10:30:42.052Z,6.13
2023-02-04T10:33:16.752Z,3.73
2023-02-04T10:35:48.305Z,3.00
2023-02-04T10:38:15.576Z,3.20
2023-02-04T10:40:42.957Z,4.90
2023-02-04T10:43:22.056Z,3.27
2023-02-04T10:45:56.997Z,6.07
2023-02-04T10:48:24.476Z,4.40
2023-02-04T10:50:51.922Z,4.77
2023-02-04T10:53:39.511Z,6.13
2023-02-04T10:56:27.337Z,5.63
2023-02-04T10:58:54.536Z,2.63
2023-02-04T11:01:21.794Z,4.33
2023-02-04T11:03:51.014Z,7.93
2023-02-04T11:06:22.252Z,4.10
2023-02-04T11:08:51.530Z,3.57
2023-02-04T11:11:20.196Z,3.30
2023-02-04T11:13:47.422Z,3.90
2023-02-04T11:16:23.822Z,6.27
2023-02-04T11:18:51.187Z,5.20
2023-02-04T11:21:27.645Z,4.77
2023-02-04T11:24:15.931Z,6.00
2023-02-04T11:26:44.455Z,5.13
2023-02-04T11:29:26.605Z,4.17
2023-02-04T11:31:54.440Z,3.83
2023-02-04T11:34:21.734Z,1.50
2023-02-04T11:36:51.880Z,3.03
2023-02-04T11:39:19.161Z,7.03
2023-02-04T11:41:46.556Z,5.07
2023-02-04T11:44:14.389Z,7.03
2023-02-04T11:46:42.106Z,5.67
2023-02-04T11:49:20.087Z,4.93
2023-02-04T11:51:47.675Z,5.47
2023-02-04T11:54:19.020Z,6.83
2023-02-04T11:56:47.270Z,6.83
2023-02-04T11:59:15.389Z,8.23
2023-02-04T12:01:42.671Z,6.53
2023-02-04T12:04:22.080Z,8.70
2023-02-04T12:06:58.362Z,3.47
2023-02-04T12:09:26.943Z,3.20
2023-02-04T12:11:58.346Z,2.57
2023-02-04T12:14:32.651Z,5.13
2023-02-04T12:17:00.591Z,4.80
2023-02-04T12:19:28.264Z,4.67
2023-02-04T12:21:55.800Z,5.17
2023-02-04T12:24:23.025Z,4.43
2023-02-04T12:26:50.286Z,5.03
2023-02-04T12:29:17.452Z,2.40
2023-02-04T12:31:44.768Z,3.63
2023-02-04T12:34:12.045Z,6.13
2023-02-04T12:36:39.252Z,3.60
2023-02-04T12:39:06.496Z,4.77
2023-02-04T12:41:34.222Z,3.93
2023-02-04T12:44:01.457Z,8.87
2023-02-04T12:46:29.464Z,10.77
2023-02-04T12:48:56.706Z,5.03
2023-02-04T12:51:23.932Z,7.40
2023-02-04T12:53:51.501Z,10.93
2023-02-04T12:56:20.669Z,9.63
2023-02-04T12:58:47.900Z,7.87
2023-02-04T13:01:15.167Z,6.43
2023-02-04T13:03:42.395Z,6.87
2023-02-04T13:06:09.734Z,9.77
2023-02-04T13:08:37.111Z,5.53
2023-02-04T13:11:04.391Z,6.23
2023-02-04T13:13:32.076Z,5.13
2023-02-04T13:15:59.440Z,7.47
2023-02-04T13:18:26.690Z,8.67
2023-02-04T13:20:53.914Z,7.50
2023-02-04T13:23:21.092Z,7.83
2023-02-04T13:25:48.833Z,6.33
2023-02-04T13:28:16.174Z,4.60
2023-02-04T13:30:43.488Z,5.97
2023-02-04T13:33:10.719Z,6.30
2023-02-04T13:35:38.445Z,5.23
2023-02-04T13:38:05.645Z,5.80
2023-02-04T13:40:33.069Z,7.90
2023-02-04T13:43:00.303Z,9.33
2023-02-04T13:45:27.634Z,7.57
2023-02-04T13:47:54.870Z,7.07
2023-02-04T13:50:22.048Z,11.97
2023-02-04T13:52:49.305Z,11.93
2023-02-04T13:55:16.545Z,11.03
2023-02-04T13:57:43.883Z,5.37
2023-02-04T14:00:11.467Z,8.87
2023-02-04T14:02:38.720Z,6.63
2023-02-04T14:05:06.102Z,7.57
2023-02-04T14:07:34.090Z,9.47
2023-02-04T14:10:01.335Z,8.33
2023-02-04T14:12:28.586Z,6.40
2023-02-04T14:14:55.832Z,5.70
2023-02-04T14:17:23.569Z,4.77
2023-02-04T14:19:50.795Z,4.60
2023-02-04T14:22:18.470Z,4.30
2023-02-04T14:24:47.499Z,5.53
2023-02-04T14:27:14.725Z,7.43
2023-02-04T14:29:41.953Z,4.90
2023-02-04T14:32:09.138Z,4.57
2023-02-04T14:34:36.667Z,4.87
2023-02-04T14:37:04.370Z,5.87
2023-02-04T14:39:31.617Z,3.47
2023-02-04T14:41:58.868Z,3.17
2023-02-04T14:44:26.389Z,9.10
2023-02-04T14:46:53.589Z,2.83
2023-02-04T14:49:20.754Z,4.83
2023-02-04T14:51:47.914Z,6.33
2023-02-04T14:54:16.368Z,3.63
2023-02-04T14:56:44.688Z,5.43
2023-02-04T14:59:11.977Z,2.13
2023-02-04T15:01:39.309Z,5.33
2023-02-04T15:04:06.684Z,3.77
2023-02-04T15:06:33.873Z,3.50
2023-02-04T15:09:01.100Z,3.00
2023-02-04T15:11:28.332Z,4.07
2023-02-04T15:13:55.584Z,4.37
2023-02-04T15:16:22.784Z,5.07
2023-02-04T15:18:50.271Z,7.23
2023-02-04T15:21:17.905Z,8.77
2023-02-04T15:23:47.349Z,5.63
2023-02-04T15:26:14.945Z,4.57
2023-02-04T15:28:42.102Z,4.80
2023-02-04T15:31:09.466Z,6.60
2023-02-04T15:33:37.146Z,5.87
2023-02-04T15:36:04.618Z,10.93
2023-02-04T15:38:31.853Z,7.43
2023-02-04T15:40:59.082Z,4.20
2023-02-04T15:43:26.265Z,7.40
2023-02-04T15:45:53.487Z,5.33
2023-02-04T15:48:21.115Z,8.23
2023-02-04T15:50:48.348Z,5.53
2023-02-04T15:53:15.559Z,9.90
2023-02-04T15:55:42.772Z,15.20
2023-02-04T15:58:10.033Z,12.63
2023-02-04T16:00:37.428Z,16.83
2023-02-04T16:03:04.793Z,9.17
2023-02-04T16:05:32.077Z,5.47
2023-02-04T16:07:59.372Z,10.27
2023-02-04T16:10:26.674Z,8.00
2023-02-04T16:12:56.831Z,11.60
2023-02-04T16:15:24.507Z,9.40
2023-02-04T16:17:51.754Z,8.77
2023-02-04T16:20:20.101Z,7.90
2023-02-04T16:22:47.276Z,12.60
2023-02-04T16:25:14.601Z,13.63
2023-02-04T16:27:41.989Z,7.87
2023-02-04T16:30:09.490Z,23.73
2023-02-04T16:32:37.119Z,10.43
2023-02-04T16:35:04.540Z,10.07
2023-02-04T16:37:32.097Z,6.87
2023-02-04T16:39:59.331Z,12.47
2023-02-04T16:42:26.697Z,9.47
2023-02-04T16:44:53.931Z,5.83
2023-02-04T16:47:21.158Z,9.67
2023-02-04T16:49:49.105Z,6.10
2023-02-04T16:52:16.263Z,6.93
2023-02-04T16:54:44.180Z,9.70
2023-02-04T16:57:12.249Z,8.93
2023-02-04T16:59:39.409Z,9.90
2023-02-04T17:02:07.013Z,6.10
2023-02-04T17:04:34.705Z,5.63
2023-02-04T17:07:01.895Z,7.23
2023-02-04T17:09:29.138Z,8.93
2023-02-04T17:11:56.573Z,15.33
2023-02-04T17:14:24.961Z,8.73
2023-02-04T17:16:53.037Z,10.77
2023-02-04T17:19:21.144Z,9.27
2023-02-04T17:21:49.062Z,7.50
2023-02-04T17:24:16.566Z,7.67
2023-02-04T17:26:43.899Z,9.17
2023-02-04T17:29:12.357Z,6.53
2023-02-04T17:31:40.769Z,6.70
2023-02-04T17:34:08.024Z,5.73
2023-02-04T17:36:35.576Z,7.70
2023-02-04T17:39:03.369Z,11.60
2023-02-04T17:41:31.023Z,10.20
2023-02-04T17:43:59.060Z,6.97
2023-02-04T17:46:26.570Z,3.07
2023-02-04T17:48:53.824Z,6.90
2023-02-04T17:51:21.033Z,5.73
2023-02-04T17:53:48.273Z,12.40
2023-02-04T17:56:15.640Z,9.80
2023-02-04T17:58:43.305Z,19.10
2023-02-04T18:01:11.874Z,14.97
2023-02-04T18:03:39.626Z,17.13
2023-02-04T18:06:23.708Z,15.53
2023-02-04T18:08:51.394Z,7.43
2023-02-04T18:11:20.843Z,6.00
2023-02-04T18:13:48.717Z,7.43
2023-02-04T18:16:19.115Z,9.00
2023-02-04T18:18:46.409Z,9.97
2023-02-04T18:21:16.852Z,6.17
2023-02-04T18:23:47.143Z,15.90
2023-02-04T18:26:17.824Z,10.70
2023-02-04T18:28:46.067Z,11.80
2023-02-04T18:31:28.059Z,12.17
2023-02-04T18:33:55.690Z,10.23
2023-02-04T18:36:23.236Z,8.07
2023-02-04T18:38:51.182Z,10.57
2023-02-04T18:41:18.440Z,9.60
2023-02-04T18:43:50.463Z,9.60
2023-02-04T18:46:20.982Z,11.47
2023-02-04T18:48:54.660Z,11.53
2023-02-04T18:51:27.488Z,9.73
2023-02-04T18:53:57.463Z,8.53
2023-02-04T18:56:24.637Z,10.93
2023-02-04T18:58:52.550Z,13.27
2023-02-04T19:01:27.529Z,12.47
2023-02-04T19:03:57.500Z,6.90
2023-02-04T19:06:33.408Z,9.30
2023-02-04T19:09:00.751Z,17.67
2023-02-04T19:11:27.950Z,11.40
2023-02-04T19:13:56.458Z,11.77
2023-02-04T19:16:25.123Z,14.47
2023-02-04T19:18:53.934Z,10.10
2023-02-04T19:21:26.647Z,13.60
2023-02-04T19:23:56.525Z,14.73
2023-02-04T19:26:34.361Z,10.03
2023-02-04T19:29:01.894Z,7.70
2023-02-04T19:31:35.358Z,9.03
2023-02-04T19:34:17.725Z,12.60
2023-02-04T19:36:44.984Z,9.23
2023-02-04T19:39:30.879Z,9.10
2023-02-04T19:41:58.212Z,8.57
2023-02-04T19:44:38.563Z,11.47
2023-02-04T19:47:17.885Z,9.73
2023-02-04T19:49:45.203Z,10.60
2023-02-04T19:52:30.649Z,10.03
2023-02-04T19:55:05.634Z,9.07
2023-02-04T19:57:33.204Z,7.77
2023-02-04T20:00:01.045Z,10.50
2023-02-04T20:02:34.469Z,12.10
2023-02-04T20:05:01.895Z,9.73
2023-02-04T20:07:30.045Z,8.63
2023-02-04T20:10:02.892Z,10.00
2023-02-04T20:12:30.563Z,13.03
2023-02-04T20:14:58.258Z,12.30
2023-02-04T20:17:28.493Z,12.53
2023-02-04T20:19:56.479Z,11.60
2023-02-04T20:22:36.188Z,7.77
2023-02-04T20:25:21.836Z,7.73
2023-02-04T20:27:55.480Z,8.03
2023-02-04T20:30:26.293Z,9.07
2023-02-04T20:33:05.830Z,8.60
2023-02-04T20:35:39.178Z,10.17
2023-02-04T20:38:14.023Z,5.93
2023-02-04T20:40:42.706Z,6.43
2023-02-04T20:43:16.652Z,9.53
2023-02-04T20:45:46.867Z,6.93
2023-02-04T20:48:16.853Z,6.50
2023-02-04T20:50:44.086Z,6.80
2023-02-04T20:53:37.363Z,6.57
2023-02-04T20:56:14.939Z,5.33
2023-02-04T20:58:46.515Z,7.53
2023-02-04T21:01:19.507Z,7.20
2023-02-04T21:03:47.444Z,3.93
2023-02-04T21:06:22.982Z,5.47
2023-02-04T21:08:51.585Z,6.57
2023-02-04T21:11:18.957Z,5.87
2023-02-04T21:13:46.627Z,8.67
2023-02-04T21:16:14.001Z,13.27
2023-02-04T21:18:41.578Z,8.23
2023-02-04T21:21:10.038Z,6.50
2023-02-04T21:23:37.255Z,8.07
2023-02-04T21:26:05.017Z,12.03
2023-02-04T21:28:32.933Z,8.67
2023-02-04T21:31:00.669Z,11.17
2023-02-04T21:33:28.417Z,9.07
2023-02-04T21:35:55.691Z,9.83
2023-02-04T21:38:22.920Z,7.80
2023-02-04T21:40:50.165Z,11.00
2023-02-04T21:43:17.329Z,10.37
2023-02-04T21:45:44.627Z,7.73
2023-02-04T21:48:11.927Z,8.63
2023-02-04T21:50:39.235Z,14.07
2023-02-04T21:53:07.549Z,8.17
2023-02-04T21:55:35.006Z,9.07
2023-02-04T21:58:02.421Z,10.27
2023-02-04T22:00:29.701Z,10.97
2023-02-04T22:02:56.952Z,7.10
2023-02-04T22:05:24.229Z,9.60
2023-02-04T22:07:51.824Z,9.40
2023-02-04T22:10:20.622Z,9.33
2023-02-04T22:12:48.216Z,8.90
2023-02-04T22:15:15.498Z,11.60
2023-02-04T22:17:42.906Z,9.93
2023-02-04T22:20:10.889Z,12.20
2023-02-04T22:22:39.758Z,8.43
2023-02-04T22:25:07.120Z,9.23
2023-02-04T22:27:34.781Z,9.77
2023-02-04T22:30:03.243Z,13.80
2023-02-04T22:32:31.011Z,9.57
2023-02-04T22:34:58.687Z,15.57
2023-02-04T22:37:26.154Z,14.13
2023-02-04T22:39:53.450Z,9.93
2023-02-04T22:42:21.237Z,7.97
2023-02-04T22:44:48.446Z,10.50
2023-02-04T22:47:15.700Z,12.03
2023-02-04T22:49:42.894Z,15.73
2023-02-04T22:52:10.127Z,10.37
2023-02-04T22:54:38.243Z,8.67
2023-02-04T22:57:05.522Z,8.13
2023-02-04T22:59:32.748Z,11.77
2023-02-04T23:02:00.141Z,10.47
2023-02-04T23:04:27.438Z,8.60
2023-02-04T23:06:54.895Z,17.00
2023-02-04T23:09:22.431Z,16.37
2023-02-04T23:11:49.984Z,15.57
2023-02-04T23:14:17.278Z,13.10
2023-02-04T23:16:46.989Z,12.87
2023-02-04T23:19:14.686Z,15.07
2023-02-04T23:21:41.860Z,14.83
2023-02-04T23:24:09.115Z,14.43
2023-02-04T23:26:36.590Z,12.07
2023-02-04T23:29:03.801Z,16.50
2023-02-04T23:31:31.053Z,16.40
2023-02-04T23:33:58.280Z,16.20
2023-02-04T23:36:25.457Z,13.90
2023-02-04T23:38:52.704Z,11.93
2023-02-04T23:41:19.958Z,10.63
2023-02-04T23:43:47.166Z,8.80
2023-02-04T23:46:14.412Z,14.67
2023-02-04T23:48:41.724Z,11.63
2023-02-04T23:51:09.017Z,11.20
2023-02-04T23:53:36.263Z,10.70
2023-02-04T23:56:03.478Z,10.80
2023-02-04T23:58:30.927Z,11.10
